createdAt,value
2023-05-22T00:00:37.474Z,10.68
2023-05-22T00:03:24.859Z,12.13
2023-05-22T00:06:00.530Z,11.98
2023-05-22T00:08:29.917Z,12.45
2023-05-22T00:10:58.498Z,10.98
2023-05-22T00:13:27.214Z,12.95
2023-05-22T00:15:55.701Z,11.50
2023-05-22T00:18:27.392Z,10.70
2023-05-22T00:20:56.149Z,11.63
2023-05-22T00:23:25.322Z,13.50
2023-05-22T00:25:53.880Z,9.57
2023-05-22T00:28:22.592Z,10.25
2023-05-22T00:30:51.082Z,14.10
2023-05-22T00:33:20.906Z,9.95
2023-05-22T00:35:49.320Z,11.05
2023-05-22T00:38:33.225Z,10.68
2023-05-22T00:41:02.758Z,11.55
2023-05-22T00:43:32.016Z,10.52
2023-05-22T00:46:01.104Z,12.15
2023-05-22T00:48:29.895Z,11.00
2023-05-22T00:51:00.167Z,11.80
2023-05-22T00:53:30.644Z,11.43
2023-05-22T00:56:01.261Z,14.30
2023-05-22T00:58:31.117Z,11.30
2023-05-22T01:01:00.017Z,11.45
2023-05-22T01:03:30.482Z,13.82
2023-05-22T01:05:59.143Z,13.43
2023-05-22T01:08:28.185Z,20.92
2023-05-22T01:11:10.983Z,18.65
2023-05-22T01:13:56.579Z,17.98
2023-05-22T01:16:54.988Z,19.95
2023-05-22T01:19:35.894Z,25.30
2023-05-22T01:22:58.826Z,24.13
2023-05-22T01:25:27.589Z,21.02
2023-05-22T01:27:59.121Z,24.00
2023-05-22T01:30:47.541Z,22.13
2023-05-22T01:33:18.403Z,23.30
2023-05-22T01:35:55.919Z,26.35
2023-05-22T01:38:25.777Z,17.50
2023-05-22T01:40:55.535Z,20.15
2023-05-22T01:43:24.256Z,25.02
2023-05-22T01:45:53.300Z,15.10
2023-05-22T01:48:21.848Z,19.00
2023-05-22T01:50:53.602Z,16.60
2023-05-22T01:53:34.016Z,16.42
2023-05-22T01:56:22.093Z,17.08
2023-05-22T01:58:57.062Z,14.60
2023-05-22T02:01:30.512Z,17.75
2023-05-22T02:03:59.949Z,12.57
2023-05-22T02:06:32.703Z,11.00
2023-05-22T02:09:03.077Z,15.65
2023-05-22T02:11:34.421Z,13.75
2023-05-22T02:14:03.918Z,13.02
2023-05-22T02:16:32.635Z,11.73
2023-05-22T02:19:08.049Z,13.60
2023-05-22T02:21:37.511Z,17.45
2023-05-22T02:24:06.206Z,13.85
2023-05-22T02:26:35.267Z,16.13
2023-05-22T02:29:04.398Z,15.63
2023-05-22T02:31:33.198Z,13.45
2023-05-22T02:34:01.880Z,14.30
2023-05-22T02:36:31.145Z,13.45
2023-05-22T02:39:00.761Z,19.13
2023-05-22T02:41:29.693Z,17.58
2023-05-22T02:43:58.503Z,15.18
2023-05-22T02:46:27.696Z,13.60
2023-05-22T02:48:57.168Z,16.85
2023-05-22T02:51:26.015Z,16.00
2023-05-22T02:53:55.221Z,17.25
2023-05-22T02:56:24.234Z,18.85
2023-05-22T02:58:52.613Z,15.93
2023-05-22T03:01:22.225Z,15.32
2023-05-22T03:03:50.816Z,16.67
2023-05-22T03:06:20.129Z,17.60
2023-05-22T03:08:49.412Z,15.43
2023-05-22T03:11:18.018Z,22.02
2023-05-22T03:13:46.327Z,16.65
2023-05-22T03:16:15.422Z,17.95
2023-05-22T03:18:46.702Z,22.17
2023-05-22T03:21:15.925Z,21.23
2023-05-22T03:23:45.281Z,19.73
2023-05-22T03:26:14.407Z,20.15
2023-05-22T03:28:42.886Z,13.93
2023-05-22T03:31:12.102Z,17.00
2023-05-22T03:33:57.800Z,18.15
2023-05-22T03:36:26.780Z,17.60
2023-05-22T03:38:57.406Z,22.35
2023-05-22T03:41:26.762Z,19.13
2023-05-22T03:43:55.463Z,18.10
2023-05-22T03:46:25.808Z,17.88
2023-05-22T03:48:58.455Z,18.52
2023-05-22T03:51:27.416Z,19.00
2023-05-22T03:53:55.871Z,18.40
2023-05-22T03:56:24.904Z,17.10
2023-05-22T03:58:53.604Z,20.63
2023-05-22T04:01:23.861Z,19.13
2023-05-22T04:03:52.273Z,13.55
2023-05-22T04:06:21.954Z,21.75
2023-05-22T04:08:50.297Z,28.60
2023-05-22T04:11:19.861Z,25.73
2023-05-22T04:13:50.516Z,23.25
2023-05-22T04:16:19.220Z,18.42
2023-05-22T04:18:48.476Z,21.13
2023-05-22T04:21:17.670Z,28.20
2023-05-22T04:23:47.767Z,18.60
2023-05-22T04:26:18.238Z,28.42
2023-05-22T04:28:47.366Z,24.05
2023-05-22T04:31:16.235Z,23.30
2023-05-22T04:33:48.417Z,17.33
2023-05-22T04:36:20.986Z,18.52
2023-05-22T04:38:51.846Z,18.73
2023-05-22T04:41:22.637Z,15.68
2023-05-22T04:43:54.290Z,20.27
2023-05-22T04:46:22.960Z,18.98
2023-05-22T04:48:51.252Z,20.33
2023-05-22T04:51:20.056Z,22.33
2023-05-22T04:53:49.853Z,25.23
2023-05-22T04:56:31.818Z,20.23
2023-05-22T04:59:04.931Z,22.40
2023-05-22T05:01:35.353Z,23.45
2023-05-22T05:04:04.775Z,19.60
2023-05-22T05:06:34.931Z,25.75
2023-05-22T05:09:07.424Z,20.08
2023-05-22T05:11:37.339Z,19.00
2023-05-22T05:14:05.934Z,16.13
2023-05-22T05:16:35.003Z,20.48
2023-05-22T05:19:04.282Z,18.38
2023-05-22T05:21:33.643Z,17.02
2023-05-22T05:24:02.748Z,16.40
2023-05-22T05:26:32.156Z,15.35
2023-05-22T05:29:00.582Z,15.90
2023-05-22T05:31:37.514Z,18.85
2023-05-22T05:34:16.707Z,22.77
2023-05-22T05:37:02.990Z,18.45
2023-05-22T05:39:32.077Z,21.90
2023-05-22T05:42:03.271Z,19.07
2023-05-22T05:44:31.910Z,20.05
2023-05-22T05:47:01.305Z,19.60
2023-05-22T05:49:30.245Z,21.52
2023-05-22T05:51:58.913Z,20.20
2023-05-22T05:54:28.097Z,18.63
2023-05-22T05:57:01.501Z,16.05
2023-05-22T05:59:32.164Z,25.33
2023-05-22T06:02:30.543Z,16.85
2023-05-22T06:05:02.325Z,15.53
2023-05-22T06:07:38.234Z,14.25
2023-05-22T06:10:13.165Z,13.40
2023-05-22T06:13:11.614Z,19.00
2023-05-22T06:15:40.501Z,19.98
2023-05-22T06:18:09.318Z,16.35
2023-05-22T06:20:39.672Z,13.35
2023-05-22T06:23:09.054Z,13.85
2023-05-22T06:25:39.867Z,14.55
2023-05-22T06:28:09.254Z,16.00
2023-05-22T06:30:40.371Z,16.55
2023-05-22T06:33:14.700Z,13.57
2023-05-22T06:35:43.788Z,14.38
2023-05-22T06:38:13.045Z,20.90
2023-05-22T06:40:43.194Z,13.38
2023-05-22T06:43:16.992Z,16.73
2023-05-22T06:45:53.262Z,13.23
2023-05-22T06:48:24.818Z,15.77
2023-05-22T06:51:15.774Z,12.93
2023-05-22T06:53:46.836Z,14.83
2023-05-22T06:56:19.873Z,14.48
2023-05-22T06:58:54.449Z,9.32
2023-05-22T07:01:26.993Z,14.10
2023-05-22T07:04:11.570Z,10.18
2023-05-22T07:07:06.024Z,7.63
2023-05-22T07:09:35.422Z,13.15
2023-05-22T07:12:06.641Z,12.70
2023-05-22T07:14:35.877Z,8.20
2023-05-22T07:17:05.778Z,11.10
2023-05-22T07:19:40.067Z,12.88
2023-05-22T07:22:08.282Z,9.55
2023-05-22T07:24:39.422Z,9.93
2023-05-22T07:27:09.382Z,7.05
2023-05-22T07:29:39.189Z,8.27
2023-05-22T07:32:09.880Z,9.27
2023-05-22T07:34:39.084Z,8.30
2023-05-22T07:37:13.301Z,24.40
2023-05-22T07:39:43.224Z,6.43
2023-05-22T07:42:13.672Z,5.30
2023-05-22T07:44:49.225Z,6.68
2023-05-22T07:47:19.472Z,5.20
2023-05-22T07:49:48.451Z,9.35
2023-05-22T07:52:17.912Z,6.78
2023-05-22T07:54:47.031Z,7.70
2023-05-22T07:57:16.734Z,8.23
2023-05-22T07:59:46.230Z,5.43
2023-05-22T08:02:15.216Z,6.70
2023-05-22T08:04:44.772Z,8.65
2023-05-22T08:07:13.305Z,7.45
2023-05-22T08:09:42.033Z,6.80
2023-05-22T08:12:10.883Z,5.80
2023-05-22T08:14:40.370Z,8.27
2023-05-22T08:17:08.908Z,7.00
2023-05-22T08:19:37.579Z,15.75
2023-05-22T08:22:06.408Z,6.20
2023-05-22T08:24:34.937Z,5.93
2023-05-22T08:27:05.225Z,6.28
2023-05-22T08:29:34.061Z,5.85
2023-05-22T08:32:02.453Z,13.10
2023-05-22T08:34:32.834Z,5.93
2023-05-22T08:37:01.274Z,5.97
2023-05-22T08:39:30.900Z,10.93
2023-05-22T08:41:59.475Z,6.68
2023-05-22T08:44:28.169Z,5.20
2023-05-22T08:46:59.957Z,10.73
2023-05-22T08:49:29.023Z,6.03
2023-05-22T08:52:03.730Z,5.45
2023-05-22T08:54:36.824Z,4.60
2023-05-22T08:57:06.370Z,10.95
2023-05-22T08:59:40.073Z,6.68
2023-05-22T09:02:09.256Z,4.50
2023-05-22T09:04:37.994Z,4.25
2023-05-22T09:07:06.611Z,6.90
2023-05-22T09:09:39.195Z,5.10
2023-05-22T09:12:11.785Z,20.88
2023-05-22T09:14:42.267Z,9.20
2023-05-22T09:17:14.796Z,7.03
2023-05-22T09:19:45.240Z,5.40
2023-05-22T09:22:14.529Z,7.10
2023-05-22T09:24:44.878Z,5.20
2023-05-22T09:27:13.199Z,10.05
2023-05-22T09:29:49.931Z,8.88
2023-05-22T09:32:19.062Z,6.15
2023-05-22T09:34:47.962Z,10.35
2023-05-22T09:37:17.865Z,7.40
2023-05-22T09:39:48.333Z,11.07
2023-05-22T09:42:17.959Z,5.53
2023-05-22T09:44:50.370Z,7.22
2023-05-22T09:47:18.752Z,6.60
2023-05-22T09:49:47.638Z,8.63
2023-05-22T09:52:18.319Z,6.45
2023-05-22T09:54:55.926Z,4.93
2023-05-22T09:57:26.457Z,7.32
2023-05-22T09:59:58.839Z,4.75
2023-05-22T10:02:28.941Z,4.75
2023-05-22T10:04:59.144Z,6.15
2023-05-22T10:07:35.366Z,4.40
2023-05-22T10:10:14.740Z,12.68
2023-05-22T10:12:48.369Z,7.22
2023-05-22T10:15:17.969Z,8.65
2023-05-22T10:17:49.251Z,5.88
2023-05-22T10:20:20.894Z,5.45
2023-05-22T10:22:49.267Z,22.13
2023-05-22T10:25:19.030Z,13.60
2023-05-22T10:27:49.210Z,4.78
2023-05-22T10:30:27.117Z,3.83
2023-05-22T10:33:28.820Z,7.18
2023-05-22T10:36:13.727Z,12.88
2023-05-22T10:39:11.391Z,6.18
2023-05-22T10:41:41.333Z,6.13
2023-05-22T10:44:11.506Z,4.22
2023-05-22T10:46:40.689Z,4.95
2023-05-22T10:49:09.171Z,5.15
2023-05-22T10:51:38.196Z,4.32
2023-05-22T10:54:06.759Z,6.82
2023-05-22T10:56:36.304Z,12.48
2023-05-22T10:59:07.447Z,4.75
2023-05-22T11:01:38.614Z,5.68
2023-05-22T11:04:25.889Z,4.00
2023-05-22T11:07:05.493Z,4.43
2023-05-22T11:09:48.573Z,13.75
2023-05-22T11:12:24.423Z,5.00
2023-05-22T11:15:06.609Z,5.63
2023-05-22T11:17:43.094Z,4.95
2023-05-22T11:20:23.444Z,5.78
2023-05-22T11:23:01.989Z,6.03
2023-05-22T11:25:32.788Z,9.35
2023-05-22T11:28:06.672Z,8.70
2023-05-22T11:30:35.209Z,4.82
2023-05-22T11:33:06.735Z,4.82
2023-05-22T11:38:08.215Z,3.72
2023-05-22T11:40:36.703Z,6.57
2023-05-22T11:43:05.596Z,4.50
2023-05-22T11:45:37.530Z,7.13
2023-05-22T11:48:09.094Z,4.32
2023-05-22T11:50:42.510Z,9.77
2023-05-22T11:53:12.765Z,5.45
2023-05-22T11:55:42.951Z,7.80
2023-05-22T11:58:11.500Z,5.15
2023-05-22T12:00:40.049Z,7.32
2023-05-22T12:03:09.035Z,5.38
2023-05-22T12:05:38.149Z,6.40
2023-05-22T12:08:06.991Z,3.83
2023-05-22T12:10:35.896Z,12.00
2023-05-22T12:13:04.695Z,3.45
2023-05-22T12:15:32.921Z,16.85
2023-05-22T12:18:06.792Z,5.63
2023-05-22T12:20:35.074Z,8.45
2023-05-22T12:23:03.671Z,5.43
2023-05-22T12:25:39.510Z,6.60
2023-05-22T12:28:08.217Z,5.90
2023-05-22T12:30:42.109Z,7.63
2023-05-22T12:33:17.643Z,5.60
2023-05-22T12:35:46.512Z,7.18
2023-05-22T12:38:15.315Z,5.45
2023-05-22T12:40:43.650Z,7.70
2023-05-22T12:43:12.494Z,4.82
2023-05-22T12:45:43.548Z,3.83
2023-05-22T12:50:41.320Z,5.35
2023-05-22T12:53:10.612Z,4.68
2023-05-22T12:55:42.961Z,5.10
2023-05-22T12:58:13.150Z,3.35
2023-05-22T13:00:43.907Z,4.50
2023-05-22T13:05:42.084Z,3.92
2023-05-22T13:08:12.449Z,10.30
2023-05-22T13:10:41.842Z,7.25
2023-05-22T13:13:12.988Z,4.35
2023-05-22T13:18:10.333Z,8.05
2023-05-22T13:20:38.757Z,10.10
2023-05-22T13:23:07.501Z,8.93
2023-05-22T13:25:36.346Z,3.75
2023-05-22T13:28:04.982Z,16.75
2023-05-22T13:30:33.469Z,5.45
2023-05-22T13:33:02.176Z,5.00
2023-05-22T13:35:30.509Z,4.22
2023-05-22T13:37:59.756Z,7.30
2023-05-22T13:40:28.046Z,7.05
2023-05-22T13:42:56.711Z,4.70
2023-05-22T13:45:25.170Z,11.88
2023-05-22T13:47:53.815Z,4.20
2023-05-22T13:50:22.370Z,5.57
2023-05-22T13:52:50.971Z,3.75
2023-05-22T13:55:19.285Z,5.47
2023-05-22T13:57:48.023Z,6.35
2023-05-22T14:00:16.750Z,9.82
2023-05-22T14:02:49.599Z,4.22
2023-05-22T14:05:18.309Z,8.05
2023-05-22T14:07:47.546Z,10.95
2023-05-22T14:10:16.229Z,6.53
2023-05-22T14:12:45.949Z,14.60
2023-05-22T14:15:16.264Z,7.10
2023-05-22T14:17:45.086Z,7.80
2023-05-22T14:20:13.787Z,9.15
2023-05-22T14:22:57.579Z,19.10
2023-05-22T14:25:30.562Z,5.97
2023-05-22T14:28:03.593Z,9.32
2023-05-22T14:30:32.540Z,7.82
2023-05-22T14:33:03.631Z,5.28
2023-05-22T14:35:38.994Z,5.15
2023-05-22T14:38:08.035Z,4.13
2023-05-22T14:40:36.323Z,4.18
2023-05-22T14:43:06.440Z,5.07
2023-05-22T14:45:35.049Z,4.78
2023-05-22T14:48:04.117Z,5.03
2023-05-22T14:50:34.638Z,13.23
2023-05-22T14:53:03.577Z,6.30
2023-05-22T14:55:32.064Z,13.00
2023-05-22T14:58:05.053Z,14.35
2023-05-22T15:00:34.727Z,4.82
2023-05-22T15:03:07.118Z,11.02
2023-05-22T15:05:36.523Z,3.88
2023-05-22T15:08:31.496Z,11.82
2023-05-22T15:11:03.118Z,9.02
2023-05-22T15:13:32.915Z,5.43
2023-05-22T15:16:05.093Z,15.20
2023-05-22T15:18:33.770Z,10.18
2023-05-22T15:21:03.020Z,3.85
2023-05-22T15:23:34.220Z,5.63
2023-05-22T15:26:02.676Z,3.95
2023-05-22T15:28:31.349Z,6.35
2023-05-22T15:31:01.150Z,11.63
2023-05-22T15:33:29.785Z,5.47
2023-05-22T15:35:58.114Z,3.83
2023-05-22T15:38:28.366Z,6.47
2023-05-22T15:40:56.758Z,5.82
2023-05-22T15:43:28.732Z,11.45
2023-05-22T15:45:57.065Z,9.77
2023-05-22T15:48:27.048Z,29.92
2023-05-22T15:50:55.599Z,5.82
2023-05-22T15:53:36.670Z,16.75
2023-05-22T15:56:10.706Z,24.63
2023-05-22T15:58:44.156Z,9.15
2023-05-22T16:01:22.327Z,5.43
2023-05-22T16:04:02.223Z,8.20
2023-05-22T16:06:36.099Z,10.60
2023-05-22T16:09:11.746Z,6.57
2023-05-22T16:11:49.953Z,11.32
2023-05-22T16:14:20.099Z,4.55
2023-05-22T16:16:53.863Z,8.52
2023-05-22T16:19:25.205Z,3.80
2023-05-22T16:21:58.316Z,3.88
2023-05-22T16:24:37.252Z,4.88
2023-05-22T16:27:06.254Z,3.78
2023-05-22T16:29:34.985Z,4.97
2023-05-22T16:32:03.876Z,10.70
2023-05-22T16:34:34.399Z,7.22
2023-05-22T16:37:02.652Z,6.85
2023-05-22T16:39:32.046Z,7.95
2023-05-22T16:42:01.706Z,23.25
2023-05-22T16:44:30.279Z,37.40
2023-05-22T16:46:58.627Z,14.93
2023-05-22T16:49:27.323Z,12.13
2023-05-22T16:51:55.586Z,17.75
2023-05-22T16:54:25.431Z,7.65
2023-05-22T16:56:53.790Z,17.58
2023-05-22T16:59:22.594Z,12.32
2023-05-22T17:01:51.053Z,22.17
2023-05-22T17:04:23.126Z,6.80
2023-05-22T17:06:53.815Z,18.65
2023-05-22T17:09:22.616Z,10.65
2023-05-22T17:11:50.855Z,12.68
2023-05-22T17:14:21.861Z,10.70
2023-05-22T17:16:57.678Z,10.63
2023-05-22T17:19:26.664Z,10.75
2023-05-22T17:21:55.229Z,21.02
2023-05-22T17:24:25.959Z,58.42
2023-05-22T17:26:54.366Z,10.37
2023-05-22T17:29:23.159Z,9.27
2023-05-22T17:31:51.615Z,15.40
2023-05-22T17:34:20.262Z,7.93
2023-05-22T17:36:48.559Z,22.83
2023-05-22T17:39:17.116Z,17.90
2023-05-22T17:41:45.535Z,18.08
2023-05-22T17:44:14.113Z,34.25
2023-05-22T17:46:46.479Z,21.67
2023-05-22T17:49:15.587Z,21.02
2023-05-22T17:51:43.969Z,7.50
2023-05-22T17:54:15.675Z,6.90
2023-05-22T17:56:44.642Z,33.17
2023-05-22T17:59:16.285Z,27.63
2023-05-22T18:01:45.025Z,10.52
2023-05-22T18:07:22.751Z,26.83
2023-05-22T18:09:54.773Z,17.77
2023-05-22T18:12:31.747Z,10.57
2023-05-22T18:15:01.120Z,24.45
2023-05-22T18:17:33.678Z,23.60
2023-05-22T18:20:02.437Z,24.27
2023-05-22T18:22:35.905Z,34.58
2023-05-22T18:25:08.344Z,19.08
2023-05-22T18:27:38.060Z,15.82
2023-05-22T18:30:09.612Z,18.80
2023-05-22T18:32:39.465Z,16.00
2023-05-22T18:35:10.123Z,27.17
2023-05-22T18:37:39.297Z,37.80
2023-05-22T18:40:09.736Z,28.33
2023-05-22T18:42:48.325Z,23.52
2023-05-22T18:45:17.244Z,41.30
2023-05-22T18:47:45.547Z,27.77
2023-05-22T18:50:14.437Z,32.65
2023-05-22T18:52:42.763Z,31.63
2023-05-22T18:55:12.403Z,29.52
2023-05-22T18:58:06.175Z,29.70
2023-05-22T19:00:36.741Z,27.10
2023-05-22T19:03:11.541Z,31.77
2023-05-22T19:05:41.260Z,54.08
2023-05-22T19:08:09.841Z,50.40
2023-05-22T19:10:40.366Z,53.97
2023-05-22T19:13:09.396Z,74.93
2023-05-22T19:15:41.428Z,251.32
2023-05-22T19:18:12.675Z,227.70
2023-05-22T19:20:41.618Z,265.02
2023-05-22T19:23:12.376Z,217.52
2023-05-22T19:25:41.604Z,65.65
2023-05-22T19:28:09.893Z,65.05
2023-05-22T19:30:38.948Z,56.15
2023-05-22T19:33:08.983Z,42.80
2023-05-22T19:35:38.780Z,38.13
2023-05-22T19:38:07.244Z,34.05
2023-05-22T19:40:36.603Z,28.98
2023-05-22T19:43:05.185Z,29.00
2023-05-22T19:45:34.032Z,38.15
2023-05-22T19:48:02.664Z,39.17
2023-05-22T19:50:36.306Z,34.53
2023-05-22T19:56:44.452Z,113.57
2023-05-22T19:59:38.740Z,43.38
2023-05-22T20:02:22.274Z,35.55
2023-05-22T20:06:02.565Z,35.92
2023-05-22T20:09:13.017Z,48.88
2023-05-22T20:11:41.539Z,47.75
2023-05-22T20:14:21.622Z,30.67
2023-05-22T20:16:54.912Z,29.27
2023-05-22T20:19:27.605Z,26.05
2023-05-22T20:22:30.194Z,22.48
2023-05-22T20:25:02.909Z,26.30
2023-05-22T20:32:47.771Z,25.67
2023-05-22T20:35:20.465Z,29.53
2023-05-22T20:37:51.814Z,25.40
2023-05-22T20:40:20.873Z,17.17
2023-05-22T20:42:49.441Z,15.13
2023-05-22T20:45:19.032Z,17.77
2023-05-22T20:48:47.140Z,22.77
2023-05-22T20:51:24.323Z,48.75
2023-05-22T20:53:53.745Z,39.75
2023-05-22T20:56:23.738Z,38.70
2023-05-22T20:58:52.068Z,28.17
2023-05-22T21:01:21.054Z,16.67
2023-05-22T21:03:56.516Z,20.60
2023-05-22T21:06:26.497Z,20.98
2023-05-22T21:09:00.850Z,18.95
2023-05-22T21:11:32.264Z,13.95
2023-05-22T21:14:02.188Z,17.77
2023-05-22T21:16:33.153Z,14.27
2023-05-22T21:19:01.471Z,13.30
2023-05-22T21:21:30.180Z,17.05
2023-05-22T21:23:58.663Z,14.77
2023-05-22T21:26:27.786Z,18.05
2023-05-22T21:28:57.686Z,12.38
2023-05-22T21:31:26.348Z,10.73
2023-05-22T21:33:54.792Z,13.90
2023-05-22T21:36:26.636Z,12.57
2023-05-22T21:38:57.969Z,11.50
2023-05-22T21:41:27.911Z,17.98
2023-05-22T21:43:57.380Z,18.15
2023-05-22T21:46:26.510Z,16.88
2023-05-22T21:48:54.885Z,15.73
2023-05-22T21:51:23.564Z,13.73
2023-05-22T21:53:52.023Z,14.60
2023-05-22T21:56:20.778Z,19.58
2023-05-22T21:58:49.229Z,34.28
2023-05-22T22:01:18.514Z,23.63
2023-05-22T22:03:47.198Z,23.63
2023-05-22T22:06:18.360Z,26.70
2023-05-22T22:08:46.835Z,24.75
2023-05-22T22:11:15.784Z,17.83
2023-05-22T22:13:44.180Z,19.27
2023-05-22T22:16:12.900Z,16.90
2023-05-22T22:18:41.711Z,20.33
2023-05-22T22:21:10.594Z,16.92
2023-05-22T22:23:38.902Z,13.23
2023-05-22T22:26:08.521Z,13.10
2023-05-22T22:28:36.926Z,12.48
2023-05-22T22:31:05.604Z,15.07
2023-05-22T22:33:33.983Z,13.50
2023-05-22T22:36:04.881Z,11.10
2023-05-22T22:38:35.138Z,13.35
2023-05-22T22:41:05.148Z,12.75
2023-05-22T22:43:33.494Z,15.55
2023-05-22T22:46:02.354Z,13.68
2023-05-22T22:48:30.634Z,12.48
2023-05-22T22:50:59.399Z,12.98
2023-05-22T22:53:27.694Z,16.05
2023-05-22T22:55:57.074Z,12.52
2023-05-22T22:58:26.082Z,14.88
2023-05-22T23:00:54.789Z,12.73
2023-05-22T23:03:23.133Z,13.65
2023-05-22T23:05:52.090Z,15.23
2023-05-22T23:08:20.651Z,14.80
2023-05-22T23:10:49.616Z,14.65
2023-05-22T23:13:17.959Z,14.68
2023-05-22T23:15:46.787Z,13.60
2023-05-22T23:18:15.433Z,13.20
2023-05-22T23:20:44.606Z,14.18
2023-05-22T23:23:12.890Z,12.48
2023-05-22T23:25:42.183Z,12.48
2023-05-22T23:28:10.904Z,13.65
2023-05-22T23:30:42.520Z,12.20
2023-05-22T23:33:12.131Z,11.70
2023-05-22T23:35:42.663Z,13.98
2023-05-22T23:38:11.024Z,12.80
2023-05-22T23:40:40.228Z,14.15
2023-05-22T23:43:09.454Z,14.10
2023-05-22T23:45:38.371Z,13.07
2023-05-22T23:48:07.010Z,13.60
2023-05-22T23:50:36.249Z,12.77
2023-05-22T23:53:04.667Z,13.82
2023-05-22T23:55:33.302Z,12.23
2023-05-22T23:58:01.650Z,11.73
